sensor_id;sensor_type;location;lat;lon;timestamp;pressure;altitude;pressure_sealevel;temperature;humidity
55490;BME280;44029;52.956;4.772;2023-03-03T00:00:49;102810.84;;;4.61;100.00
55490;BME280;44029;52.956;4.772;2023-03-03T00:03:19;102814.97;;;4.73;100.00
55490;BME280;44029;52.956;4.772;2023-03-03T00:05:45;102807.63;;;4.65;100.00
55490;BME280;44029;52.956;4.772;2023-03-03T00:08:10;102804.16;;;4.47;100.00
55490;BME280;44029;52.956;4.772;2023-03-03T00:10:36;102806.56;;;4.58;100.00
55490;BME280;44029;52.956;4.772;2023-03-03T00:13:02;102807.41;;;4.59;100.00
55490;BME280;44029;52.956;4.772;2023-03-03T00:15:29;102815.63;;;4.67;100.00
55490;BME280;44029;52.956;4.772;2023-03-03T00:17:55;102822.84;;;4.58;100.00
55490;BME280;44029;52.956;4.772;2023-03-03T00:20:31;102815.63;;;4.75;100.00
55490;BME280;44029;52.956;4.772;2023-03-03T00:23:19;102826.34;;;4.77;100.00
55490;BME280;44029;52.956;4.772;2023-03-03T00:25:48;102822.94;;;4.75;100.00
55490;BME280;44029;52.956;4.772;2023-03-03T00:28:43;102819.25;;;4.84;100.00
55490;BME280;44029;52.956;4.772;2023-03-03T00:31:18;102824.31;;;4.79;100.00
55490;BME280;44029;52.956;4.772;2023-03-03T00:33:52;102829.97;;;4.86;100.00
55490;BME280;44029;52.956;4.772;2023-03-03T00:36:35;102831.78;;;4.77;100.00
55490;BME280;44029;52.956;4.772;2023-03-03T00:39:36;102829.59;;;4.80;100.00
55490;BME280;44029;52.956;4.772;2023-03-03T00:42:17;102820.22;;;4.75;100.00
55490;BME280;44029;52.956;4.772;2023-03-03T00:47:29;102814.81;;;4.83;100.00
55490;BME280;44029;52.956;4.772;2023-03-03T00:50:26;102818.72;;;4.80;100.00
55490;BME280;44029;52.956;4.772;2023-03-03T00:53:09;102821.41;;;4.72;100.00
55490;BME280;44029;52.956;4.772;2023-03-03T00:55:35;102828.97;;;4.60;100.00
55490;BME280;44029;52.956;4.772;2023-03-03T00:58:01;102823.69;;;4.59;100.00
55490;BME280;44029;52.956;4.772;2023-03-03T01:00:27;102824.03;;;4.56;100.00
55490;BME280;44029;52.956;4.772;2023-03-03T01:02:52;102820.66;;;4.54;100.00
55490;BME280;44029;52.956;4.772;2023-03-03T01:05:18;102822.69;;;4.60;100.00
55490;BME280;44029;52.956;4.772;2023-03-03T01:07:44;102818.94;;;4.53;100.00
55490;BME280;44029;52.956;4.772;2023-03-03T01:10:10;102826.59;;;4.57;100.00
55490;BME280;44029;52.956;4.772;2023-03-03T01:12:35;102821.31;;;4.56;100.00
55490;BME280;44029;52.956;4.772;2023-03-03T01:15:06;102817.59;;;4.57;100.00
55490;BME280;44029;52.956;4.772;2023-03-03T01:17:32;102828.44;;;4.57;100.00
55490;BME280;44029;52.956;4.772;2023-03-03T01:19:59;102817.28;;;4.60;100.00
55490;BME280;44029;52.956;4.772;2023-03-03T01:22:24;102821.19;;;4.57;100.00
55490;BME280;44029;52.956;4.772;2023-03-03T01:24:50;102822.16;;;4.56;100.00
55490;BME280;44029;52.956;4.772;2023-03-03T01:27:15;102827.81;;;4.63;100.00
55490;BME280;44029;52.956;4.772;2023-03-03T01:29:41;102815.63;;;4.67;100.00
55490;BME280;44029;52.956;4.772;2023-03-03T01:32:06;102821.03;;;4.67;100.00
55490;BME280;44029;52.956;4.772;2023-03-03T01:34:32;102820.06;;;4.76;100.00
55490;BME280;44029;52.956;4.772;2023-03-03T01:36:57;102824.97;;;4.73;100.00
55490;BME280;44029;52.956;4.772;2023-03-03T01:39:25;102823.09;;;4.73;100.00
55490;BME280;44029;52.956;4.772;2023-03-03T01:41:50;102821.03;;;4.67;100.00
55490;BME280;44029;52.956;4.772;2023-03-03T01:44:16;102825.28;;;4.70;100.00
55490;BME280;44029;52.956;4.772;2023-03-03T01:46:48;102819.41;;;4.82;100.00
55490;BME280;44029;52.956;4.772;2023-03-03T01:49:40;102813.34;;;4.89;100.00
55490;BME280;44029;52.956;4.772;2023-03-03T01:52:24;102808.22;;;4.86;100.00
55490;BME280;44029;52.956;4.772;2023-03-03T01:54:54;102813.13;;;4.82;100.00
55490;BME280;44029;52.956;4.772;2023-03-03T01:57:26;102806.50;;;4.84;100.00
55490;BME280;44029;52.956;4.772;2023-03-03T01:59:55;102804.09;;;4.73;100.00
55490;BME280;44029;52.956;4.772;2023-03-03T02:02:24;102806.34;;;4.78;100.00
55490;BME280;44029;52.956;4.772;2023-03-03T02:04:50;102804.44;;;4.70;100.00
55490;BME280;44029;52.956;4.772;2023-03-03T02:07:17;102790.56;;;4.81;100.00
55490;BME280;44029;52.956;4.772;2023-03-03T02:12:11;102796.16;;;4.80;100.00
55490;BME280;44029;52.956;4.772;2023-03-03T02:14:38;102793.59;;;4.70;100.00
55490;BME280;44029;52.956;4.772;2023-03-03T02:17:03;102800.69;;;4.71;100.00
55490;BME280;44029;52.956;4.772;2023-03-03T02:22:30;102787.50;;;4.84;100.00
55490;BME280;44029;52.956;4.772;2023-03-03T02:24:59;102798.19;;;4.78;100.00
55490;BME280;44029;52.956;4.772;2023-03-03T02:27:27;102801.22;;;4.75;100.00
55490;BME280;44029;52.956;4.772;2023-03-03T02:29:55;102793.22;;;4.65;100.00
55490;BME280;44029;52.956;4.772;2023-03-03T02:32:20;102792.00;;;4.59;100.00
55490;BME280;44029;52.956;4.772;2023-03-03T02:34:48;102791.56;;;4.72;100.00
55490;BME280;44029;52.956;4.772;2023-03-03T02:37:14;102794.56;;;4.61;100.00
55490;BME280;44029;52.956;4.772;2023-03-03T02:39:39;102790.81;;;4.62;100.00
55490;BME280;44029;52.956;4.772;2023-03-03T02:42:22;102792.41;;;4.81;100.00
55490;BME280;44029;52.956;4.772;2023-03-03T02:44:49;102793.41;;;4.72;100.00
55490;BME280;44029;52.956;4.772;2023-03-03T02:47:15;102792.88;;;4.68;100.00
55490;BME280;44029;52.956;4.772;2023-03-03T02:49:40;102798.28;;;4.68;100.00
55490;BME280;44029;52.956;4.772;2023-03-03T02:52:09;102794.59;;;4.69;100.00
55490;BME280;44029;52.956;4.772;2023-03-03T02:54:35;102797.63;;;4.66;100.00
55490;BME280;44029;52.956;4.772;2023-03-03T02:57:01;102793.06;;;4.67;100.00
55490;BME280;44029;52.956;4.772;2023-03-03T02:59:27;102791.84;;;4.61;100.00
55490;BME280;44029;52.956;4.772;2023-03-03T03:01:53;102794.91;;;4.66;100.00
55490;BME280;44029;52.956;4.772;2023-03-03T03:04:23;102793.91;;;4.75;100.00
55490;BME280;44029;52.956;4.772;2023-03-03T03:06:49;102800.69;;;4.71;100.00
55490;BME280;44029;52.956;4.772;2023-03-03T03:09:16;102801.66;;;4.62;100.00
55490;BME280;44029;52.956;4.772;2023-03-03T03:11:42;102796.28;;;4.70;100.00
55490;BME280;44029;52.956;4.772;2023-03-03T03:14:08;102794.44;;;4.71;100.00
55490;BME280;44029;52.956;4.772;2023-03-03T03:16:34;102800.00;;;4.61;100.00
55490;BME280;44029;52.956;4.772;2023-03-03T03:19:00;102801.88;;;4.69;100.00
55490;BME280;44029;52.956;4.772;2023-03-03T03:21:26;102800.69;;;4.71;100.00
55490;BME280;44029;52.956;4.772;2023-03-03T03:23:52;102799.50;;;4.65;100.00
55490;BME280;44029;52.956;4.772;2023-03-03T03:26:17;102798.13;;;4.70;100.00
55490;BME280;44029;52.956;4.772;2023-03-03T03:28:45;102794.06;;;4.65;100.00
55490;BME280;44029;52.956;4.772;2023-03-03T03:31:10;102792.88;;;4.68;100.00
55490;BME280;44029;52.956;4.772;2023-03-03T03:33:36;102799.69;;;4.72;100.00
55490;BME280;44029;52.956;4.772;2023-03-03T03:36:03;102797.84;;;4.81;100.00
55490;BME280;44029;52.956;4.772;2023-03-03T03:38:29;102796.16;;;4.80;100.00
55490;BME280;44029;52.956;4.772;2023-03-03T03:40:56;102796.16;;;4.80;100.00
55490;BME280;44029;52.956;4.772;2023-03-03T03:43:21;102796.16;;;4.80;100.00
55490;BME280;44029;52.956;4.772;2023-03-03T03:45:47;102799.34;;;4.75;100.00
55490;BME280;44029;52.956;4.772;2023-03-03T03:48:12;102798.66;;;4.73;100.00
55490;BME280;44029;52.956;4.772;2023-03-03T03:50:38;102806.50;;;4.76;100.00
55490;BME280;44029;52.956;4.772;2023-03-03T03:53:04;102794.81;;;4.84;100.00
55490;BME280;44029;52.956;4.772;2023-03-03T03:55:30;102790.56;;;4.81;100.00
55490;BME280;44029;52.956;4.772;2023-03-03T03:57:55;102794.81;;;4.84;100.00
55490;BME280;44029;52.956;4.772;2023-03-03T04:00:21;102796.34;;;4.87;100.00
55490;BME280;44029;52.956;4.772;2023-03-03T04:02:47;102804.16;;;4.81;100.00
55490;BME280;44029;52.956;4.772;2023-03-03T04:05:13;102798.19;;;4.78;100.00
55490;BME280;44029;52.956;4.772;2023-03-03T04:07:38;102788.16;;;4.70;100.00
55490;BME280;44029;52.956;4.772;2023-03-03T04:10:04;102804.25;;;4.72;100.00
55490;BME280;44029;52.956;4.772;2023-03-03T04:12:30;102802.41;;;4.72;100.00
55490;BME280;44029;52.956;4.772;2023-03-03T04:15:05;102802.03;;;4.67;100.00
55490;BME280;44029;52.956;4.772;2023-03-03T04:17:31;102803.38;;;4.63;100.00
55490;BME280;44029;52.956;4.772;2023-03-03T04:19:57;102806.44;;;4.68;100.00
55490;BME280;44029;52.956;4.772;2023-03-03T04:22:22;102803.91;;;4.67;100.00
55490;BME280;44029;52.956;4.772;2023-03-03T04:24:47;102802.50;;;4.62;100.00
55490;BME280;44029;52.956;4.772;2023-03-03T04:27:13;102794.50;;;4.53;100.00
55490;BME280;44029;52.956;4.772;2023-03-03T04:29:40;102800.16;;;4.59;100.00
55490;BME280;44029;52.956;4.772;2023-03-03T04:32:05;102802.50;;;4.54;100.00
55490;BME280;44029;52.956;4.772;2023-03-03T04:34:30;102807.25;;;4.60;100.00
55490;BME280;44029;52.956;4.772;2023-03-03T04:36:56;102805.06;;;4.64;100.00
55490;BME280;44029;52.956;4.772;2023-03-03T04:39:21;102797.75;;;4.56;100.00
55490;BME280;44029;52.956;4.772;2023-03-03T04:41:46;102796.91;;;4.56;100.00
55490;BME280;44029;52.956;4.772;2023-03-03T04:44:12;102795.56;;;4.60;100.00
55490;BME280;44029;52.956;4.772;2023-03-03T04:46:37;102801.50;;;4.63;100.00
55490;BME280;44029;52.956;4.772;2023-03-03T04:49:02;102794.03;;;4.57;100.00
55490;BME280;44029;52.956;4.772;2023-03-03T04:51:28;102795.56;;;4.60;100.00
55490;BME280;44029;52.956;4.772;2023-03-03T04:53:54;102801.66;;;4.62;100.00
55490;BME280;44029;52.956;4.772;2023-03-03T04:56:19;102798.44;;;4.58;100.00
55490;BME280;44029;52.956;4.772;2023-03-03T04:58:44;102797.06;;;4.54;100.00
55490;BME280;44029;52.956;4.772;2023-03-03T05:01:13;102790.50;;;4.65;100.00
55490;BME280;44029;52.956;4.772;2023-03-03T05:03:39;102789.75;;;4.55;100.00
55490;BME280;44029;52.956;4.772;2023-03-03T05:06:04;102789.75;;;4.55;100.00
55490;BME280;44029;52.956;4.772;2023-03-03T05:08:30;102792.31;;;4.56;100.00
55490;BME280;44029;52.956;4.772;2023-03-03T05:10:55;102788.41;;;4.59;100.00
55490;BME280;44029;52.956;4.772;2023-03-03T05:13:21;102781.78;;;4.53;100.00
55490;BME280;44029;52.956;4.772;2023-03-03T05:15:50;102796.47;;;4.69;100.00
55490;BME280;44029;52.956;4.772;2023-03-03T05:18:18;102786.44;;;4.69;100.00
55490;BME280;44029;52.956;4.772;2023-03-03T05:20:44;102789.97;;;4.61;100.00
55490;BME280;44029;52.956;4.772;2023-03-03T05:23:09;102792.00;;;4.59;100.00
55490;BME280;44029;52.956;4.772;2023-03-03T05:25:34;102794.56;;;4.61;100.00
55490;BME280;44029;52.956;4.772;2023-03-03T05:28:00;102793.06;;;4.67;100.00
55490;BME280;44029;52.956;4.772;2023-03-03T05:30:25;102799.81;;;4.62;100.00
55490;BME280;44029;52.956;4.772;2023-03-03T05:32:50;102791.66;;;4.62;100.00
55490;BME280;44029;52.956;4.772;2023-03-03T05:35:16;102793.69;;;4.60;100.00
55490;BME280;44029;52.956;4.772;2023-03-03T05:37:41;102802.00;;;4.59;100.00
55490;BME280;44029;52.956;4.772;2023-03-03T05:40:12;102806.25;;;4.61;100.00
55490;BME280;44029;52.956;4.772;2023-03-03T05:42:37;102803.69;;;4.52;100.00
55490;BME280;44029;52.956;4.772;2023-03-03T05:45:03;102802.97;;;4.50;100.00
55490;BME280;44029;52.956;4.772;2023-03-03T05:47:28;102789.91;;;4.53;100.00
55490;BME280;44029;52.956;4.772;2023-03-03T05:49:54;102795.88;;;4.57;100.00
55490;BME280;44029;52.956;4.772;2023-03-03T05:52:19;102802.19;;;4.57;100.00
55490;BME280;44029;52.956;4.772;2023-03-03T05:54:44;102801.66;;;4.54;100.00
55490;BME280;44029;52.956;4.772;2023-03-03T05:57:10;102793.50;;;4.54;100.00
55490;BME280;44029;52.956;4.772;2023-03-03T05:59:36;102796.56;;;4.59;100.00
55490;BME280;44029;52.956;4.772;2023-03-03T06:02:01;102791.75;;;4.44;100.00
55490;BME280;44029;52.956;4.772;2023-03-03T06:04:26;102794.31;;;4.46;100.00
55490;BME280;44029;52.956;4.772;2023-03-03T06:06:52;102799.41;;;4.49;100.00
55490;BME280;44029;52.956;4.772;2023-03-03T06:09:17;102786.19;;;4.46;100.00
55490;BME280;44029;52.956;4.772;2023-03-03T06:11:43;102787.69;;;4.49;100.00
55490;BME280;44029;52.956;4.772;2023-03-03T06:14:08;102795.69;;;4.50;100.00
55490;BME280;44029;52.956;4.772;2023-03-03T06:16:34;102794.81;;;4.50;100.00
55490;BME280;44029;52.956;4.772;2023-03-03T06:18:59;102804.28;;;4.45;100.00
55490;BME280;44029;52.956;4.772;2023-03-03T06:21:25;102792.75;;;4.43;100.00
55490;BME280;44029;52.956;4.772;2023-03-03T06:23:50;102804.66;;;4.51;100.00
55490;BME280;44029;52.956;4.772;2023-03-03T06:26:16;102805.63;;;4.41;100.00
55490;BME280;44029;52.956;4.772;2023-03-03T06:28:41;102799.56;;;4.48;100.00
55490;BME280;44029;52.956;4.772;2023-03-03T06:31:06;102807.75;;;4.56;100.00
55490;BME280;44029;52.956;4.772;2023-03-03T06:33:32;102802.19;;;4.57;100.00
55490;BME280;44029;52.956;4.772;2023-03-03T06:35:57;102802.41;;;4.72;100.00
55490;BME280;44029;52.956;4.772;2023-03-03T06:38:23;102800.78;;;4.88;100.00
55490;BME280;44029;52.956;4.772;2023-03-03T06:40:48;102806.00;;;4.81;100.00
55490;BME280;44029;52.956;4.772;2023-03-03T06:43:13;102798.50;;;4.67;100.00
55490;BME280;44029;52.956;4.772;2023-03-03T06:45:39;102798.72;;;5.49;100.00
55490;BME280;44029;52.956;4.772;2023-03-03T06:48:04;102792.22;;;6.24;100.00
55490;BME280;44029;52.956;4.772;2023-03-03T06:50:30;102786.97;;;6.78;100.00
55490;BME280;44029;52.956;4.772;2023-03-03T06:53:13;102775.16;;;7.48;100.00
55490;BME280;44029;52.956;4.772;2023-03-03T06:55:39;102776.06;;;7.41;100.00
55490;BME280;44029;52.956;4.772;2023-03-03T06:58:16;102770.59;;;8.02;100.00
55490;BME280;44029;52.956;4.772;2023-03-03T07:00:44;102776.91;;;8.02;100.00
55490;BME280;44029;52.956;4.772;2023-03-03T07:03:15;102776.44;;;8.28;100.00
55490;BME280;44029;52.956;4.772;2023-03-03T07:05:40;102767.50;;;7.67;100.00
55490;BME280;44029;52.956;4.772;2023-03-03T07:08:13;102773.78;;;7.90;100.00
55490;BME280;44029;52.956;4.772;2023-03-03T07:10:39;102767.19;;;6.45;100.00
55490;BME280;44029;52.956;4.772;2023-03-03T07:13:26;102788.88;;;6.69;100.00
55490;BME280;44029;52.956;4.772;2023-03-03T07:15:53;102786.44;;;6.83;100.00
55490;BME280;44029;52.956;4.772;2023-03-03T07:20:50;102786.41;;;7.45;100.00
55490;BME280;44029;52.956;4.772;2023-03-03T07:23:26;102797.69;;;7.42;100.00
55490;BME280;44029;52.956;4.772;2023-03-03T07:25:56;102798.16;;;7.69;100.00
55490;BME280;44029;52.956;4.772;2023-03-03T07:28:28;102796.47;;;7.68;100.00
55490;BME280;44029;52.956;4.772;2023-03-03T07:30:55;102802.84;;;7.06;100.00
55490;BME280;44029;52.956;4.772;2023-03-03T07:33:28;102809.19;;;7.29;100.00
55490;BME280;44029;52.956;4.772;2023-03-03T07:35:57;102803.69;;;7.61;100.00
55490;BME280;44029;52.956;4.772;2023-03-03T07:40:59;102808.91;;;7.70;100.00
55490;BME280;44029;52.956;4.772;2023-03-03T07:43:40;102806.31;;;7.92;100.00
55490;BME280;44029;52.956;4.772;2023-03-03T07:48:40;102806.13;;;7.93;100.00
55490;BME280;44029;52.956;4.772;2023-03-03T07:51:24;102809.44;;;8.42;100.00
55490;BME280;44029;52.956;4.772;2023-03-03T07:53:53;102811.44;;;8.63;100.00
55490;BME280;44029;52.956;4.772;2023-03-03T07:56:27;102809.63;;;8.40;100.00
55490;BME280;44029;52.956;4.772;2023-03-03T07:58:53;102806.53;;;8.58;100.00
55490;BME280;44029;52.956;4.772;2023-03-03T08:06:56;102819.28;;;9.54;100.00
55490;BME280;44029;52.956;4.772;2023-03-03T08:09:29;102824.94;;;8.64;100.00
55490;BME280;44029;52.956;4.772;2023-03-03T08:14:33;102831.88;;;7.76;100.00
55490;BME280;44029;52.956;4.772;2023-03-03T08:16:59;102839.63;;;7.64;100.00
55490;BME280;44029;52.956;4.772;2023-03-03T08:19:25;102838.88;;;7.24;100.00
55490;BME280;44029;52.956;4.772;2023-03-03T08:21:55;102841.31;;;7.42;100.00
55490;BME280;44029;52.956;4.772;2023-03-03T08:24:24;102852.03;;;7.44;100.00
55490;BME280;44029;52.956;4.772;2023-03-03T08:26:49;102845.88;;;7.50;100.00
55490;BME280;44029;52.956;4.772;2023-03-03T08:29:14;102850.34;;;7.43;100.00
55490;BME280;44029;52.956;4.772;2023-03-03T08:31:40;102848.44;;;7.51;100.00
55490;BME280;44029;52.956;4.772;2023-03-03T08:34:05;102850.53;;;7.41;100.00
55490;BME280;44029;52.956;4.772;2023-03-03T08:36:31;102850.59;;;7.33;100.00
55490;BME280;44029;52.956;4.772;2023-03-03T08:38:56;102849.88;;;7.31;100.00
55490;BME280;44029;52.956;4.772;2023-03-03T08:41:22;102849.13;;;7.45;100.00
55490;BME280;44029;52.956;4.772;2023-03-03T08:43:47;102848.09;;;7.69;100.00
55490;BME280;44029;52.956;4.772;2023-03-03T08:46:13;102849.09;;;7.77;100.00
55490;BME280;44029;52.956;4.772;2023-03-03T08:48:38;102844.72;;;7.67;100.00
55490;BME280;44029;52.956;4.772;2023-03-03T08:51:03;102842.81;;;7.68;100.00
55490;BME280;44029;52.956;4.772;2023-03-03T08:53:29;102836.00;;;7.72;100.00
55490;BME280;44029;52.956;4.772;2023-03-03T08:55:57;102845.03;;;7.72;100.00
55490;BME280;44029;52.956;4.772;2023-03-03T08:58:23;102848.78;;;7.71;100.00
55490;BME280;44029;52.956;4.772;2023-03-03T09:00:48;102844.84;;;7.74;100.00
55490;BME280;44029;52.956;4.772;2023-03-03T09:03:13;102844.63;;;7.61;100.00
55490;BME280;44029;52.956;4.772;2023-03-03T09:05:39;102844.47;;;7.77;100.00
55490;BME280;44029;52.956;4.772;2023-03-03T09:08:06;102847.03;;;7.79;100.00
55490;BME280;44029;52.956;4.772;2023-03-03T09:10:32;102845.16;;;7.79;100.00
55490;BME280;44029;52.956;4.772;2023-03-03T09:13:02;102844.72;;;7.90;100.00
55490;BME280;44029;52.956;4.772;2023-03-03T09:15:37;102838.31;;;7.83;100.00
55490;BME280;44029;52.956;4.772;2023-03-03T09:20:46;102849.75;;;8.02;100.00
55490;BME280;44029;52.956;4.772;2023-03-03T09:25:54;102838.59;;;7.88;100.00
55490;BME280;44029;52.956;4.772;2023-03-03T09:28:24;102842.00;;;7.90;100.00
55490;BME280;44029;52.956;4.772;2023-03-03T09:30:51;102837.91;;;7.86;100.00
55490;BME280;44029;52.956;4.772;2023-03-03T09:33:43;102838.16;;;8.00;100.00
55490;BME280;44029;52.956;4.772;2023-03-03T09:36:27;102826.31;;;8.07;100.00
55490;BME280;44029;52.956;4.772;2023-03-03T09:38:55;102828.56;;;8.04;100.00
55490;BME280;44029;52.956;4.772;2023-03-03T09:42:16;102842.03;;;7.82;100.00
55490;BME280;44029;52.956;4.772;2023-03-03T09:55:56;102837.38;;;8.29;100.00
55490;BME280;44029;52.956;4.772;2023-03-03T10:04:10;102844.91;;;8.27;100.00
55490;BME280;44029;52.956;4.772;2023-03-03T10:09:45;102856.84;;;8.11;100.00
55490;BME280;44029;52.956;4.772;2023-03-03T10:20:25;102860.44;;;8.26;100.00
55490;BME280;44029;52.956;4.772;2023-03-03T10:22:55;102857.84;;;8.10;100.00
55490;BME280;44029;52.956;4.772;2023-03-03T10:25:38;102867.22;;;8.30;100.00
55490;BME280;44029;52.956;4.772;2023-03-03T10:46:56;102870.13;;;8.67;100.00
55490;BME280;44029;52.956;4.772;2023-03-03T10:53:20;102862.78;;;8.52;100.00
55490;BME280;44029;52.956;4.772;2023-03-03T10:58:30;102870.25;;;8.88;100.00
55490;BME280;44029;52.956;4.772;2023-03-03T11:03:55;102862.41;;;9.00;100.00
55490;BME280;44029;52.956;4.772;2023-03-03T11:06:36;102866.84;;;9.01;100.00
55490;BME280;44029;52.956;4.772;2023-03-03T11:14:09;102861.38;;;9.01;100.00
55490;BME280;44029;52.956;4.772;2023-03-03T11:16:49;102863.78;;;9.26;100.00
55490;BME280;44029;52.956;4.772;2023-03-03T11:23:33;102864.59;;;9.41;100.00
55490;BME280;44029;52.956;4.772;2023-03-03T11:39:53;102857.47;;;9.25;100.00
55490;BME280;44029;52.956;4.772;2023-03-03T11:42:25;102857.63;;;9.60;100.00
55490;BME280;44029;52.956;4.772;2023-03-03T11:45:01;102856.09;;;9.36;100.00
55490;BME280;44029;52.956;4.772;2023-03-03T11:47:31;102863.31;;;9.22;100.00
55490;BME280;44029;52.956;4.772;2023-03-03T11:50:15;102863.06;;;9.02;100.00
55490;BME280;44029;52.956;4.772;2023-03-03T11:52:52;102866.38;;;8.83;100.00
55490;BME280;44029;52.956;4.772;2023-03-03T11:55:30;102857.78;;;9.01;100.00
55490;BME280;44029;52.956;4.772;2023-03-03T12:03:41;102852.50;;;9.51;100.00
55490;BME280;44029;52.956;4.772;2023-03-03T12:06:21;102847.06;;;9.36;100.00
55490;BME280;44029;52.956;4.772;2023-03-03T12:20:05;102836.25;;;9.49;100.00
55490;BME280;44029;52.956;4.772;2023-03-03T12:22:41;102833.06;;;9.45;100.00
55490;BME280;44029;52.956;4.772;2023-03-03T12:25:21;102829.09;;;9.70;100.00
55490;BME280;44029;52.956;4.772;2023-03-03T12:27:59;102829.44;;;9.60;100.00
55490;BME280;44029;52.956;4.772;2023-03-03T12:33:18;102832.50;;;9.50;100.00
55490;BME280;44029;52.956;4.772;2023-03-03T12:38:39;102829.72;;;9.86;100.00
55490;BME280;44029;52.956;4.772;2023-03-03T12:41:52;102826.59;;;9.68;100.00
55490;BME280;44029;52.956;4.772;2023-03-03T12:47:08;102832.22;;;9.08;100.00
55490;BME280;44029;52.956;4.772;2023-03-03T12:58:36;102819.91;;;8.98;100.00
55490;BME280;44029;52.956;4.772;2023-03-03T13:03:54;102821.97;;;8.81;100.00
55490;BME280;44029;52.956;4.772;2023-03-03T13:14:10;102817.38;;;9.18;100.00
55490;BME280;44029;52.956;4.772;2023-03-03T13:19:22;102815.88;;;9.52;100.00
55490;BME280;44029;52.956;4.772;2023-03-03T13:21:55;102816.63;;;9.24;100.00
55490;BME280;44029;52.956;4.772;2023-03-03T13:27:13;102822.06;;;8.87;100.00
55490;BME280;44029;52.956;4.772;2023-03-03T13:29:42;102820.38;;;8.86;100.00
55490;BME280;44029;52.956;4.772;2023-03-03T13:37:48;102813.56;;;8.97;100.00
55490;BME280;44029;52.956;4.772;2023-03-03T13:40:22;102813.06;;;9.08;100.00
55490;BME280;44029;52.956;4.772;2023-03-03T13:51:22;102811.75;;;9.04;100.00
55490;BME280;44029;52.956;4.772;2023-03-03T13:54:35;102804.72;;;8.95;100.00
55490;BME280;44029;52.956;4.772;2023-03-03T13:57:08;102810.59;;;8.92;100.00
55490;BME280;44029;52.956;4.772;2023-03-03T13:59:49;102808.78;;;8.84;100.00
55490;BME280;44029;52.956;4.772;2023-03-03T14:16:14;102804.81;;;9.02;100.00
55490;BME280;44029;52.956;4.772;2023-03-03T14:18:56;102806.03;;;8.99;100.00
55490;BME280;44029;52.956;4.772;2023-03-03T14:21:34;102807.06;;;8.98;100.00
55490;BME280;44029;52.956;4.772;2023-03-03T14:24:11;102798.25;;;9.18;100.00
55490;BME280;44029;52.956;4.772;2023-03-03T14:26:47;102797.63;;;9.01;100.00
55490;BME280;44029;52.956;4.772;2023-03-03T14:31:59;102789.75;;;8.91;100.00
55490;BME280;44029;52.956;4.772;2023-03-03T14:34:36;102796.63;;;8.87;100.00
55490;BME280;44029;52.956;4.772;2023-03-03T14:40:31;102790.31;;;8.71;100.00
55490;BME280;44029;52.956;4.772;2023-03-03T14:42:58;102790.59;;;8.77;100.00
55490;BME280;44029;52.956;4.772;2023-03-03T14:45:39;102788.06;;;8.75;100.00
55490;BME280;44029;52.956;4.772;2023-03-03T14:48:16;102788.63;;;8.70;100.00
55490;BME280;44029;52.956;4.772;2023-03-03T14:50:53;102780.06;;;8.74;100.00
55490;BME280;44029;52.956;4.772;2023-03-03T14:53:43;102771.09;;;8.80;100.00
55490;BME280;44029;52.956;4.772;2023-03-03T14:56:20;102783.25;;;8.62;100.00
55490;BME280;44029;52.956;4.772;2023-03-03T14:58:48;102778.47;;;8.64;100.00
55490;BME280;44029;52.956;4.772;2023-03-03T15:01:21;102781.47;;;8.69;100.00
55490;BME280;44029;52.956;4.772;2023-03-03T15:03:58;102773.25;;;8.69;100.00
55490;BME280;44029;52.956;4.772;2023-03-03T15:06:45;102775.31;;;8.82;100.00
55490;BME280;44029;52.956;4.772;2023-03-03T15:09:37;102774.41;;;8.60;100.00
55490;BME280;44029;52.956;4.772;2023-03-03T15:17:40;102765.00;;;8.63;100.00
55490;BME280;44029;52.956;4.772;2023-03-03T15:31:15;102755.56;;;8.36;100.00
55490;BME280;44029;52.956;4.772;2023-03-03T15:45:05;102747.50;;;8.42;100.00
55490;BME280;44029;52.956;4.772;2023-03-03T15:47:42;102749.25;;;8.35;100.00
55490;BME280;44029;52.956;4.772;2023-03-03T15:56:03;102739.53;;;8.18;100.00
55490;BME280;44029;52.956;4.772;2023-03-03T16:03:46;102746.22;;;8.00;100.00
55490;BME280;44029;52.956;4.772;2023-03-03T16:06:27;102748.84;;;8.08;100.00
55490;BME280;44029;52.956;4.772;2023-03-03T16:09:20;102750.94;;;8.21;100.00
55490;BME280;44029;52.956;4.772;2023-03-03T16:11:54;102750.56;;;8.24;100.00
55490;BME280;44029;52.956;4.772;2023-03-03T16:17:35;102753.66;;;8.21;100.00
55490;BME280;44029;52.956;4.772;2023-03-03T16:20:26;102757.63;;;8.33;100.00
55490;BME280;44029;52.956;4.772;2023-03-03T16:25:56;102743.59;;;8.22;100.00
55490;BME280;44029;52.956;4.772;2023-03-03T16:31:04;102755.66;;;8.12;100.00
55490;BME280;44029;52.956;4.772;2023-03-03T16:33:35;102753.91;;;7.97;100.00
55490;BME280;44029;52.956;4.772;2023-03-03T16:39:00;102746.56;;;7.97;100.00
55490;BME280;44029;52.956;4.772;2023-03-03T16:44:42;102747.72;;;8.03;100.00
55490;BME280;44029;52.956;4.772;2023-03-03T16:47:18;102746.38;;;7.84;100.00
55490;BME280;44029;52.956;4.772;2023-03-03T16:50:08;102752.13;;;7.89;100.00
55490;BME280;44029;52.956;4.772;2023-03-03T16:55:31;102752.22;;;8.10;100.00
55490;BME280;44029;52.956;4.772;2023-03-03T17:01:04;102750.56;;;8.09;100.00
55490;BME280;44029;52.956;4.772;2023-03-03T17:14:15;102755.50;;;7.91;100.00
55490;BME280;44029;52.956;4.772;2023-03-03T17:22:24;102758.72;;;7.94;100.00
55490;BME280;44029;52.956;4.772;2023-03-03T17:25:21;102763.78;;;7.98;100.00
55490;BME280;44029;52.956;4.772;2023-03-03T17:30:44;102771.94;;;7.83;100.00
55490;BME280;44029;52.956;4.772;2023-03-03T17:46:52;102773.91;;;7.74;100.00
55490;BME280;44029;52.956;4.772;2023-03-03T17:49:44;102777.22;;;7.84;100.00
55490;BME280;44029;52.956;4.772;2023-03-03T17:58:03;102776.03;;;7.64;100.00